createdAt,value
2024-03-16T00:00:59.225Z,81.45
2024-03-16T00:03:47.606Z,81.86
2024-03-16T00:06:16.057Z,81.86
2024-03-16T00:08:44.809Z,81.85
2024-03-16T00:11:13.126Z,81.48
2024-03-16T00:13:41.600Z,81.81
2024-03-16T00:16:09.838Z,81.86
2024-03-16T00:18:38.491Z,81.83
2024-03-16T00:21:07.582Z,81.40
2024-03-16T00:23:36.098Z,81.62
2024-03-16T00:26:04.466Z,81.82
2024-03-16T00:28:34.578Z,82.22
2024-03-16T00:31:05.220Z,82.07
2024-03-16T00:33:34.412Z,82.34
2024-03-16T00:36:02.552Z,82.57
2024-03-16T00:38:30.828Z,82.53
2024-03-16T00:40:59.263Z,82.51
2024-03-16T00:43:28.107Z,82.84
2024-03-16T00:45:56.411Z,82.45
2024-03-16T00:48:24.811Z,82.28
2024-03-16T00:50:53.031Z,82.41
2024-03-16T00:53:21.628Z,82.30
2024-03-16T00:55:50.103Z,82.68
2024-03-16T00:58:18.319Z,82.27
2024-03-16T01:00:46.601Z,82.12
2024-03-16T01:03:14.832Z,82.07
2024-03-16T01:05:43.113Z,82.24
2024-03-16T01:08:11.385Z,81.97
2024-03-16T01:10:40.309Z,82.24
2024-03-16T01:13:08.777Z,81.93
2024-03-16T01:15:37.158Z,81.87
2024-03-16T01:18:05.336Z,81.74
2024-03-16T01:20:33.496Z,81.53
2024-03-16T01:23:04.235Z,81.35
2024-03-16T01:25:32.523Z,80.81
2024-03-16T01:28:00.648Z,81.02
2024-03-16T01:30:28.921Z,80.78
2024-03-16T01:32:57.352Z,80.49
2024-03-16T01:35:25.518Z,80.74
2024-03-16T01:37:54.096Z,80.68
2024-03-16T01:40:26.138Z,80.74
2024-03-16T01:42:54.988Z,80.99
2024-03-16T01:45:23.432Z,81.17
2024-03-16T01:47:54.057Z,81.21
2024-03-16T01:50:23.173Z,81.10
2024-03-16T01:52:51.660Z,80.98
2024-03-16T01:55:21.053Z,80.93
2024-03-16T01:57:49.775Z,80.88
2024-03-16T02:00:19.036Z,80.96
2024-03-16T02:02:47.314Z,81.12
2024-03-16T02:05:15.802Z,81.47
2024-03-16T02:07:45.596Z,81.51
2024-03-16T02:10:13.847Z,81.77
2024-03-16T02:12:43.408Z,81.69
2024-03-16T02:15:12.396Z,81.56
2024-03-16T02:17:41.013Z,81.49
2024-03-16T02:20:15.504Z,81.03
2024-03-16T02:22:44.287Z,81.11
2024-03-16T02:25:12.581Z,81.18
2024-03-16T02:27:41.434Z,81.09
2024-03-16T02:30:11.885Z,81.04
2024-03-16T02:32:40.416Z,80.87
2024-03-16T02:35:11.716Z,80.72
2024-03-16T02:37:40.018Z,80.57
2024-03-16T02:40:12.972Z,80.34
2024-03-16T02:42:44.980Z,80.37
2024-03-16T02:45:13.437Z,80.24
2024-03-16T02:47:41.621Z,80.12
2024-03-16T02:50:11.724Z,80.05
2024-03-16T02:52:40.632Z,79.59
2024-03-16T02:55:09.573Z,79.64
2024-03-16T02:57:37.854Z,79.41
2024-03-16T03:00:12.777Z,79.59
2024-03-16T03:02:41.512Z,79.49
2024-03-16T03:05:12.821Z,79.37
2024-03-16T03:07:41.239Z,79.55
2024-03-16T03:10:10.262Z,79.96
2024-03-16T03:12:40.491Z,79.56
2024-03-16T03:15:10.713Z,79.53
2024-03-16T03:17:40.656Z,79.69
2024-03-16T03:20:10.197Z,79.52
2024-03-16T03:22:38.716Z,79.63
2024-03-16T03:25:07.683Z,79.40
2024-03-16T03:27:36.137Z,79.01
2024-03-16T03:30:04.768Z,78.68
2024-03-16T03:32:34.058Z,78.71
2024-03-16T03:35:02.430Z,78.13
2024-03-16T03:37:30.811Z,78.02
2024-03-16T03:39:59.545Z,78.26
2024-03-16T03:42:30.921Z,77.88
2024-03-16T03:45:12.661Z,77.81
2024-03-16T03:48:04.616Z,77.84
2024-03-16T03:50:39.981Z,77.78
2024-03-16T03:53:08.195Z,77.79
2024-03-16T03:55:36.300Z,78.08
2024-03-16T03:58:04.809Z,77.96
2024-03-16T04:00:34.351Z,78.03
2024-03-16T04:03:05.586Z,78.17
2024-03-16T04:05:34.725Z,78.74
2024-03-16T04:08:03.800Z,78.88
2024-03-16T04:10:32.381Z,78.80
2024-03-16T04:13:00.596Z,79.34
2024-03-16T04:15:29.027Z,79.16
2024-03-16T04:17:57.483Z,79.13
2024-03-16T04:20:25.706Z,79.17
2024-03-16T04:22:54.443Z,79.19
2024-03-16T04:25:23.211Z,79.69
2024-03-16T04:27:51.801Z,80.64
2024-03-16T04:30:20.562Z,80.61
2024-03-16T04:32:48.747Z,80.67
2024-03-16T04:35:17.207Z,80.73
2024-03-16T04:37:46.308Z,80.89
2024-03-16T04:40:14.792Z,80.83
2024-03-16T04:42:43.606Z,80.83
2024-03-16T04:45:11.950Z,80.68
2024-03-16T04:47:40.185Z,80.44
2024-03-16T04:50:08.953Z,80.45
2024-03-16T04:52:37.200Z,80.39
2024-03-16T04:55:06.006Z,80.38
2024-03-16T04:57:34.194Z,80.40
2024-03-16T05:00:02.542Z,80.66
2024-03-16T05:02:32.017Z,80.99
2024-03-16T05:05:00.268Z,81.04
2024-03-16T05:07:28.577Z,80.57
2024-03-16T05:09:56.916Z,80.44
2024-03-16T05:12:26.408Z,80.31
2024-03-16T05:14:54.653Z,79.95
2024-03-16T05:17:22.796Z,79.91
2024-03-16T05:19:53.362Z,79.91
2024-03-16T05:22:21.712Z,80.26
2024-03-16T05:24:50.156Z,80.67
2024-03-16T05:27:18.512Z,80.84
2024-03-16T05:29:46.675Z,80.78
2024-03-16T05:32:15.684Z,80.56
2024-03-16T05:34:43.788Z,80.53
2024-03-16T05:37:12.077Z,80.29
2024-03-16T05:39:40.333Z,80.47
2024-03-16T05:42:08.691Z,80.50
2024-03-16T05:44:36.857Z,80.79
2024-03-16T05:47:05.036Z,80.80
2024-03-16T05:49:33.730Z,81.09
2024-03-16T05:52:02.161Z,81.41
2024-03-16T05:54:35.630Z,81.81
2024-03-16T05:57:05.233Z,82.04
2024-03-16T05:59:34.864Z,81.76
2024-03-16T06:02:03.282Z,81.69
2024-03-16T06:04:31.784Z,81.52
2024-03-16T06:07:00.135Z,81.66
2024-03-16T06:09:28.661Z,81.60
2024-03-16T06:11:57.019Z,81.49
2024-03-16T06:14:25.608Z,81.50
2024-03-16T06:16:53.804Z,81.43
2024-03-16T06:19:22.174Z,81.32
2024-03-16T06:21:50.452Z,81.18
2024-03-16T06:24:18.768Z,81.06
2024-03-16T06:26:53.891Z,81.21
2024-03-16T06:29:27.489Z,80.97
2024-03-16T06:32:06.525Z,80.64
2024-03-16T06:34:35.479Z,80.55
2024-03-16T06:37:04.597Z,80.47
2024-03-16T06:39:33.020Z,80.32
2024-03-16T06:42:01.345Z,80.12
2024-03-16T06:44:29.622Z,79.90
2024-03-16T06:46:57.693Z,79.80
2024-03-16T06:49:26.118Z,79.53
2024-03-16T06:51:54.382Z,79.22
2024-03-16T06:54:22.721Z,79.14
2024-03-16T06:56:50.911Z,78.82
2024-03-16T06:59:19.996Z,78.75
2024-03-16T07:01:48.208Z,78.29
2024-03-16T07:04:16.932Z,77.82
2024-03-16T07:06:45.342Z,77.38
2024-03-16T07:09:14.854Z,77.10
2024-03-16T07:11:47.799Z,77.12
2024-03-16T07:14:17.137Z,77.09
2024-03-16T07:16:45.326Z,77.16
2024-03-16T07:19:13.507Z,76.83
2024-03-16T07:21:41.901Z,76.59
2024-03-16T07:24:11.345Z,76.33
2024-03-16T07:26:39.651Z,76.48
2024-03-16T07:29:07.828Z,76.40
2024-03-16T07:31:36.758Z,75.24
2024-03-16T07:34:05.252Z,75.46
2024-03-16T07:36:33.433Z,75.65
2024-03-16T07:39:01.952Z,75.32
2024-03-16T07:41:30.747Z,75.89
2024-03-16T07:43:58.927Z,75.53
2024-03-16T07:46:27.300Z,75.70
2024-03-16T07:48:57.926Z,75.33
2024-03-16T07:51:32.841Z,74.97
2024-03-16T07:54:01.793Z,74.98
2024-03-16T07:56:29.932Z,74.94
2024-03-16T07:58:58.988Z,73.89
2024-03-16T08:01:27.447Z,73.95
2024-03-16T08:03:55.663Z,73.60
2024-03-16T08:06:23.876Z,72.96
2024-03-16T08:08:52.344Z,72.40
2024-03-16T08:11:23.443Z,72.29
2024-03-16T08:13:51.871Z,72.27
2024-03-16T08:16:20.129Z,71.49
2024-03-16T08:18:48.534Z,71.12
2024-03-16T08:21:17.601Z,71.15
2024-03-16T08:23:45.828Z,64.59
2024-03-16T08:26:14.260Z,68.15
2024-03-16T08:28:42.562Z,68.36
2024-03-16T08:31:10.866Z,66.93
2024-03-16T08:33:39.235Z,66.93
2024-03-16T08:36:08.012Z,63.58
2024-03-16T08:38:37.223Z,65.38
2024-03-16T08:41:06.278Z,64.38
2024-03-16T08:43:34.840Z,65.41
2024-03-16T08:46:07.443Z,65.47
2024-03-16T08:48:36.080Z,64.72
2024-03-16T08:51:05.977Z,65.79
2024-03-16T08:53:34.344Z,66.33
2024-03-16T08:56:08.031Z,66.79
2024-03-16T08:58:36.598Z,66.64
2024-03-16T09:01:05.009Z,65.54
2024-03-16T09:03:33.265Z,64.49
2024-03-16T09:06:02.897Z,63.57
2024-03-16T09:08:32.408Z,63.06
2024-03-16T09:11:00.746Z,62.19
2024-03-16T09:13:30.995Z,62.49
2024-03-16T09:15:59.422Z,63.15
2024-03-16T09:18:27.774Z,62.57
2024-03-16T09:20:56.054Z,61.90
2024-03-16T09:23:24.430Z,62.78
2024-03-16T09:25:57.287Z,63.04
2024-03-16T09:28:25.713Z,62.75
2024-03-16T09:30:56.566Z,59.75
2024-03-16T09:33:25.565Z,59.65
2024-03-16T09:35:53.970Z,60.31
2024-03-16T09:38:24.531Z,59.01
2024-03-16T09:40:53.766Z,59.33
2024-03-16T09:43:21.939Z,56.61
2024-03-16T09:45:50.708Z,54.65
2024-03-16T09:48:19.180Z,57.15
2024-03-16T09:50:49.166Z,55.42
2024-03-16T09:53:26.941Z,56.04
2024-03-16T09:55:57.804Z,53.84
2024-03-16T09:58:26.925Z,51.36
2024-03-16T10:00:56.123Z,52.75
2024-03-16T10:03:26.061Z,53.11
2024-03-16T10:05:54.545Z,52.46
2024-03-16T10:08:23.438Z,51.52
2024-03-16T10:10:51.823Z,49.88
2024-03-16T10:13:20.080Z,52.25
2024-03-16T10:15:48.429Z,50.58
2024-03-16T10:18:17.834Z,51.36
2024-03-16T10:20:46.148Z,50.35
2024-03-16T10:23:20.633Z,49.99
2024-03-16T10:25:49.717Z,51.53
2024-03-16T10:28:18.450Z,51.35
2024-03-16T10:30:47.172Z,49.35
2024-03-16T10:33:19.506Z,50.16
2024-03-16T10:35:47.787Z,51.87
2024-03-16T10:38:20.307Z,51.92
2024-03-16T10:40:50.748Z,49.42
2024-03-16T10:43:18.976Z,50.81
2024-03-16T10:45:48.787Z,52.22
2024-03-16T10:48:16.959Z,53.08
2024-03-16T10:50:48.409Z,52.71
2024-03-16T10:53:18.926Z,52.23
2024-03-16T10:55:48.754Z,53.25
2024-03-16T10:58:23.837Z,52.58
2024-03-16T11:01:04.331Z,52.84
2024-03-16T11:03:32.850Z,53.49
2024-03-16T11:06:12.279Z,53.91
2024-03-16T11:08:46.331Z,54.13
2024-03-16T11:11:20.101Z,53.55
2024-03-16T11:14:00.193Z,52.39
2024-03-16T11:16:34.263Z,52.17
2024-03-16T11:19:10.871Z,51.39
2024-03-16T11:21:39.943Z,50.38
2024-03-16T11:24:15.001Z,51.98
2024-03-16T11:26:47.644Z,49.90
2024-03-16T11:29:22.656Z,50.97
2024-03-16T11:31:57.948Z,48.93
2024-03-16T11:34:27.148Z,46.40
2024-03-16T11:36:56.958Z,46.89
2024-03-16T11:39:26.977Z,47.62
2024-03-16T11:41:57.207Z,47.19
2024-03-16T11:44:26.071Z,45.87
2024-03-16T11:46:55.086Z,45.51
2024-03-16T11:49:23.160Z,44.86
2024-03-16T11:51:59.635Z,45.46
2024-03-16T11:54:28.295Z,46.01
2024-03-16T11:56:58.623Z,44.24
2024-03-16T11:59:27.622Z,45.69
2024-03-16T12:01:56.834Z,46.26
2024-03-16T12:04:27.386Z,45.39
2024-03-16T12:06:58.842Z,45.97
2024-03-16T12:09:35.615Z,46.92
2024-03-16T12:12:09.141Z,47.39
2024-03-16T12:14:43.158Z,47.68
2024-03-16T12:17:13.063Z,48.06
2024-03-16T12:19:41.339Z,47.29
2024-03-16T12:22:16.452Z,48.16
2024-03-16T12:24:44.809Z,48.20
2024-03-16T12:27:13.579Z,47.54
2024-03-16T12:29:44.612Z,47.59
2024-03-16T12:32:13.010Z,45.61
2024-03-16T12:34:41.184Z,46.22
2024-03-16T12:37:09.355Z,45.42
2024-03-16T12:39:38.069Z,45.68
2024-03-16T12:42:07.552Z,45.53
2024-03-16T12:44:35.829Z,46.46
2024-03-16T12:47:04.207Z,45.81
2024-03-16T12:49:33.004Z,46.12
2024-03-16T12:52:01.385Z,46.14
2024-03-16T12:54:30.211Z,45.80
2024-03-16T12:56:59.591Z,46.67
2024-03-16T12:59:27.756Z,45.85
2024-03-16T13:01:57.054Z,45.89
2024-03-16T13:04:25.225Z,45.20
2024-03-16T13:06:53.402Z,44.52
2024-03-16T13:09:21.836Z,45.69
2024-03-16T13:11:50.786Z,45.27
2024-03-16T13:14:19.055Z,45.27
2024-03-16T13:16:47.333Z,45.66
2024-03-16T13:19:15.917Z,46.21
2024-03-16T13:21:47.487Z,45.71
2024-03-16T13:24:15.744Z,45.30
2024-03-16T13:26:44.127Z,45.04
2024-03-16T13:29:12.507Z,44.66
2024-03-16T13:31:40.783Z,44.53
2024-03-16T13:34:11.720Z,43.83
2024-03-16T13:36:40.438Z,42.05
2024-03-16T13:39:09.095Z,41.84
2024-03-16T13:41:37.379Z,41.63
2024-03-16T13:44:05.861Z,41.80
2024-03-16T13:46:34.321Z,40.51
2024-03-16T13:49:07.230Z,39.50
2024-03-16T13:51:35.501Z,41.09
2024-03-16T13:54:04.300Z,40.76
2024-03-16T13:56:35.230Z,41.33
2024-03-16T13:59:03.513Z,39.26
2024-03-16T14:01:31.682Z,38.32
2024-03-16T14:04:02.785Z,39.50
2024-03-16T14:06:30.917Z,40.02
2024-03-16T14:08:59.176Z,39.33
2024-03-16T14:11:27.593Z,39.45
2024-03-16T14:13:57.285Z,40.23
2024-03-16T14:16:25.749Z,40.13
2024-03-16T14:18:55.624Z,39.09
2024-03-16T14:21:23.840Z,38.91
2024-03-16T14:23:52.121Z,39.04
2024-03-16T14:26:20.312Z,40.08
2024-03-16T14:28:50.527Z,39.78
2024-03-16T14:31:18.904Z,39.55
2024-03-16T14:33:47.928Z,38.91
2024-03-16T14:36:18.523Z,37.23
2024-03-16T14:38:47.522Z,37.76
2024-03-16T14:41:16.788Z,38.40
2024-03-16T14:43:45.255Z,37.46
2024-03-16T14:46:13.890Z,37.68
2024-03-16T14:48:42.179Z,37.54
2024-03-16T14:51:10.643Z,37.13
2024-03-16T14:53:38.844Z,37.07
2024-03-16T14:56:07.041Z,36.85
2024-03-16T14:58:35.172Z,38.20
2024-03-16T15:01:03.974Z,38.19
2024-03-16T15:03:32.760Z,37.76
2024-03-16T15:06:01.333Z,37.90
2024-03-16T15:08:29.520Z,36.19
2024-03-16T15:10:58.310Z,36.20
2024-03-16T15:13:26.776Z,36.62
2024-03-16T15:15:54.961Z,36.22
2024-03-16T15:18:23.756Z,37.09
2024-03-16T15:20:53.469Z,37.71
2024-03-16T15:23:25.762Z,37.30
2024-03-16T15:26:05.993Z,37.02
2024-03-16T15:28:36.005Z,37.58
2024-03-16T15:31:04.794Z,38.64
2024-03-16T15:33:33.693Z,38.47
2024-03-16T15:36:01.986Z,38.62
2024-03-16T15:38:30.149Z,38.73
2024-03-16T15:40:58.686Z,39.52
2024-03-16T15:43:27.103Z,39.77
2024-03-16T15:45:55.278Z,39.57
2024-03-16T15:48:24.068Z,40.00
2024-03-16T15:50:53.068Z,40.47
2024-03-16T15:53:21.237Z,40.86
2024-03-16T15:55:51.973Z,41.63
2024-03-16T15:58:22.706Z,42.49
2024-03-16T16:00:51.092Z,43.53
2024-03-16T16:03:19.239Z,43.67
2024-03-16T16:05:47.541Z,44.03
2024-03-16T16:08:15.833Z,44.89
2024-03-16T16:10:45.627Z,45.68
2024-03-16T16:13:20.465Z,46.39
2024-03-16T16:15:48.845Z,47.34
2024-03-16T16:18:17.644Z,48.26
2024-03-16T16:20:46.535Z,48.37
2024-03-16T16:23:14.712Z,48.77
2024-03-16T16:25:42.897Z,49.27
2024-03-16T16:28:12.992Z,49.78
2024-03-16T16:30:41.620Z,50.52
2024-03-16T16:33:09.858Z,51.22
2024-03-16T16:35:38.493Z,51.48
2024-03-16T16:38:06.721Z,51.55
2024-03-16T16:40:36.538Z,51.37
2024-03-16T16:43:05.845Z,51.37
2024-03-16T16:45:34.110Z,51.91
2024-03-16T16:48:02.610Z,52.14
2024-03-16T16:50:30.768Z,52.18
2024-03-16T16:52:58.837Z,52.28
2024-03-16T16:55:27.218Z,52.88
2024-03-16T16:57:55.598Z,53.07
2024-03-16T17:00:24.703Z,52.74
2024-03-16T17:02:53.107Z,52.89
2024-03-16T17:05:21.258Z,52.88
2024-03-16T17:07:50.244Z,53.64
2024-03-16T17:10:18.411Z,53.99
2024-03-16T17:12:48.915Z,53.71
2024-03-16T17:15:17.536Z,53.95
2024-03-16T17:17:46.352Z,54.42
2024-03-16T17:20:19.212Z,54.33
2024-03-16T17:22:47.389Z,54.51
2024-03-16T17:25:17.570Z,54.68
2024-03-16T17:27:47.751Z,54.93
2024-03-16T17:30:16.221Z,55.45
2024-03-16T17:32:44.964Z,55.46
2024-03-16T17:35:15.942Z,55.98
2024-03-16T17:37:44.731Z,56.54
2024-03-16T17:40:15.169Z,56.57
2024-03-16T17:42:43.444Z,56.09
2024-03-16T17:45:11.626Z,56.29
2024-03-16T17:47:41.940Z,56.87
2024-03-16T17:50:10.064Z,57.57
2024-03-16T17:52:38.391Z,57.13
2024-03-16T17:55:06.834Z,57.79
2024-03-16T17:57:35.666Z,57.42
2024-03-16T18:00:06.460Z,58.22
2024-03-16T18:02:34.880Z,58.66
2024-03-16T18:05:02.934Z,59.14
2024-03-16T18:07:31.228Z,58.80
2024-03-16T18:09:59.614Z,58.33
2024-03-16T18:12:27.792Z,58.36
2024-03-16T18:14:58.447Z,58.30
2024-03-16T18:17:26.614Z,58.36
2024-03-16T18:19:55.481Z,58.81
2024-03-16T18:22:23.761Z,58.54
2024-03-16T18:24:55.569Z,58.73
2024-03-16T18:27:24.105Z,58.46
2024-03-16T18:29:52.387Z,59.50
2024-03-16T18:32:23.948Z,60.36
2024-03-16T18:34:52.214Z,59.79
2024-03-16T18:37:20.290Z,60.18
2024-03-16T18:39:49.293Z,59.98
2024-03-16T18:42:17.456Z,60.48
2024-03-16T18:44:45.630Z,59.92
2024-03-16T18:47:14.008Z,59.87
2024-03-16T18:49:42.137Z,60.11
2024-03-16T18:52:12.233Z,59.84
2024-03-16T18:54:40.480Z,61.00
2024-03-16T18:57:10.495Z,60.16
2024-03-16T18:59:38.681Z,60.01
2024-03-16T19:02:07.054Z,60.31
2024-03-16T19:04:35.354Z,61.31
2024-03-16T19:07:03.846Z,60.93
2024-03-16T19:09:32.512Z,61.52
2024-03-16T19:12:01.091Z,61.51
2024-03-16T19:14:29.446Z,61.10
2024-03-16T19:16:58.476Z,61.40
2024-03-16T19:19:28.277Z,61.47
2024-03-16T19:21:57.304Z,61.60
2024-03-16T19:24:29.026Z,61.94
2024-03-16T19:26:57.219Z,62.02
2024-03-16T19:29:25.390Z,64.64
2024-03-16T19:31:53.543Z,63.36
2024-03-16T19:34:21.623Z,62.96
2024-03-16T19:36:49.802Z,63.37
2024-03-16T19:39:20.541Z,65.10
2024-03-16T19:41:48.811Z,64.09
2024-03-16T19:44:17.091Z,63.93
2024-03-16T19:46:45.162Z,63.80
2024-03-16T19:49:13.849Z,63.94
2024-03-16T19:51:42.336Z,63.67
2024-03-16T19:54:10.511Z,63.70
2024-03-16T19:56:39.507Z,63.53
2024-03-16T19:59:07.683Z,63.53
2024-03-16T20:01:35.861Z,63.59
2024-03-16T20:04:04.337Z,63.79
2024-03-16T20:06:32.484Z,63.88
2024-03-16T20:09:00.586Z,63.86
2024-03-16T20:11:28.964Z,63.68
2024-03-16T20:13:57.135Z,63.80
2024-03-16T20:16:25.311Z,63.80
2024-03-16T20:18:53.488Z,63.98
2024-03-16T20:21:21.680Z,63.95
2024-03-16T20:23:52.606Z,64.01
2024-03-16T20:26:24.580Z,64.12
2024-03-16T20:28:52.639Z,64.50
2024-03-16T20:31:20.812Z,64.23
2024-03-16T20:33:49.498Z,64.19
2024-03-16T20:36:17.680Z,64.27
2024-03-16T20:38:45.952Z,64.39
2024-03-16T20:41:20.910Z,64.98
2024-03-16T20:43:49.262Z,64.85
2024-03-16T20:46:17.958Z,65.31
2024-03-16T20:48:46.435Z,65.34
2024-03-16T20:51:14.610Z,65.29
2024-03-16T20:53:42.812Z,65.29
2024-03-16T20:56:11.883Z,65.83
2024-03-16T20:58:39.954Z,65.61
2024-03-16T21:01:11.201Z,66.19
2024-03-16T21:03:39.377Z,65.98
2024-03-16T21:06:07.906Z,65.85
2024-03-16T21:08:36.344Z,65.78
2024-03-16T21:11:05.435Z,65.86
2024-03-16T21:13:38.092Z,65.74
2024-03-16T21:16:06.394Z,65.74
2024-03-16T21:18:35.028Z,66.10
2024-03-16T21:21:03.166Z,66.06
2024-03-16T21:23:32.830Z,66.12
2024-03-16T21:26:01.451Z,65.99
2024-03-16T21:28:30.560Z,66.12
2024-03-16T21:30:58.768Z,66.07
2024-03-16T21:33:27.128Z,66.13
2024-03-16T21:35:55.767Z,66.12
2024-03-16T21:38:23.966Z,66.06
2024-03-16T21:40:52.141Z,65.95
2024-03-16T21:43:20.211Z,65.78
2024-03-16T21:45:50.240Z,65.51
2024-03-16T21:48:19.021Z,65.53
2024-03-16T21:50:48.053Z,65.64
2024-03-16T21:53:16.403Z,65.52
2024-03-16T21:55:44.571Z,65.61
2024-03-16T21:58:12.743Z,65.73
2024-03-16T22:00:41.432Z,65.70
2024-03-16T22:03:10.026Z,65.94
2024-03-16T22:05:38.907Z,66.13
2024-03-16T22:08:07.698Z,65.86
2024-03-16T22:10:35.771Z,66.30
2024-03-16T22:13:04.054Z,66.35
2024-03-16T22:15:32.552Z,66.89
2024-03-16T22:18:00.714Z,67.30
2024-03-16T22:20:29.092Z,67.16
2024-03-16T22:22:57.272Z,67.15
2024-03-16T22:25:26.375Z,67.24
2024-03-16T22:27:54.533Z,66.92
2024-03-16T22:30:23.116Z,67.09
2024-03-16T22:32:53.026Z,67.50
2024-03-16T22:35:21.205Z,68.43
2024-03-16T22:37:49.387Z,68.44
2024-03-16T22:40:17.578Z,68.38
2024-03-16T22:42:46.448Z,69.53
2024-03-16T22:45:19.529Z,69.21
2024-03-16T22:47:47.919Z,69.94
2024-03-16T22:50:16.094Z,69.53
2024-03-16T22:52:44.478Z,69.26
2024-03-16T22:55:13.523Z,68.84
2024-03-16T22:57:41.752Z,69.00
2024-03-16T23:00:20.093Z,68.71
2024-03-16T23:02:48.800Z,68.74
2024-03-16T23:05:17.239Z,68.24
2024-03-16T23:07:46.119Z,68.87
2024-03-16T23:10:14.294Z,68.81
2024-03-16T23:12:42.683Z,68.77
2024-03-16T23:15:10.987Z,68.77
2024-03-16T23:17:39.335Z,68.89
2024-03-16T23:20:09.640Z,68.89
2024-03-16T23:22:40.732Z,68.48
2024-03-16T23:25:14.054Z,68.96
2024-03-16T23:27:42.584Z,70.02
2024-03-16T23:30:12.828Z,70.09
2024-03-16T23:32:46.974Z,69.63
2024-03-16T23:35:15.502Z,69.99
2024-03-16T23:37:43.778Z,69.96
2024-03-16T23:40:14.589Z,69.94
2024-03-16T23:42:43.207Z,69.79
2024-03-16T23:45:11.477Z,70.11
2024-03-16T23:47:39.679Z,70.05
2024-03-16T23:50:09.068Z,70.08
2024-03-16T23:52:37.731Z,70.46
2024-03-16T23:55:06.490Z,70.81
2024-03-16T23:57:34.709Z,70.87
